KPHXKFLG [ASH2839]

Details From KPHX - Phoenix Sky Harbor Intl
To KFLG - Flagstaff Pulliam
Flight Number ASH2839
Tags Real Commercial Decoded
Created
Modified
Stats Distance 135 nm / 250 km
Max Altitude 0 ft / 0 m
Waypoints 4
Social Downloads 6
Likes 0
Share VATSIM

Download

Looking for another format? Having issues loading an existing format? Contact us
Advertisement - Login to hide

Notes

Decoded

Route

KPHX FLG TAWNE KFLG

ID Type Via Altitude Latitude Longitude Leg Dist Tot Dist Heading (true) Name
O KPHX APT - 0 ft / 0 m 33.42886˚ -112.02710˚ - 0 nm - -
FLG VOR - 0 ft / 0 m 35.14719˚ -111.67417˚ 104 nm 104 nm 10° / 10° FLAGSTAFF VOR-DME
TAWNE FIX - 0 ft / 0 m 35.11847˚ -111.37136˚ 14 nm 119 nm 97° / 97° -
O KFLG APT - 0 ft / 0 m 35.13122˚ -111.67892˚ 15 nm 134 nm 273° / 273° -

Altitude Profile

Advertisement - Login to hide

KPHX

Details ICAO KPHX (PHX)
Name Phoenix Sky Harbor Intl
Region United States
Timezone America/Phoenix (UTC-7.0)
Stats Elevation 1,135 ft / 346 m (AMSL)
Location 33.433580° -112.011837°
Runways 3
Magnetic Variation 10.317° E

METAR

KPHX 110551Z 10006KT 10SM SCT210 BKN250 18/M11 A3020 RMK AO2 SLP216 T01781111 10233 20172 51013

Decode

TAF

TAF KPHX 110520Z 1106/1212 08010KT P6SM BKN200 OVC250 FM112200 VRB05KT P6SM BKN200 TEMPO 1123/1203 26004KT FM120600 09005KT P6SM BKN250

Decode

Departure Runways

ID Width Length Bearing (true) Bearing (mag) Surface Threshold Offset Overrun Length
07L 151 ft / 46 m 10,279 ft / 3,133 m 90.03° 79.71° Concrete 0 ft / 0 m 400 ft / 122 m
07R 151 ft / 46 m 7,785 ft / 2,373 m 90.03° 79.71° Concrete 0 ft / 0 m 499 ft / 152 m
08 151 ft / 46 m 11,467 ft / 3,495 m 90.06° 79.74° Concrete 899 ft / 274 m 377 ft / 115 m
25L 151 ft / 46 m 7,785 ft / 2,373 m 270.05° 259.73° Concrete 0 ft / 0 m 702 ft / 214 m
25R 151 ft / 46 m 10,279 ft / 3,133 m 270.05° 259.73° Concrete 0 ft / 0 m 991 ft / 302 m
26 151 ft / 46 m 11,467 ft / 3,495 m 270.08° 259.76° Concrete 0 ft / 0 m 0 ft / 0 m

KFLG

Details ICAO KFLG (FLG)
Name Flagstaff Pulliam
Region United States
Timezone America/Phoenix (UTC-7.0)
Stats Elevation 7,011 ft / 2,137 m (AMSL)
Location 35.138455° -111.671215°
Runways 1
Magnetic Variation 10.464° E

METAR

KFLG 110557Z AUTO 08006KT 10SM CLR M03/M24 A3049 RMK AO2 SLP308 T10331239 10056 21039 53006

Decode

TAF

TAF KFLG 110520Z 1106/1206 06010KT P6SM BKN250

Decode

Destination Runways

ID Width Length Bearing (true) Bearing (mag) Surface Threshold Offset Overrun Length
03 150 ft / 46 m 7,003 ft / 2,135 m 41.03° 30.57° Asphalt 0 ft / 0 m 0 ft / 0 m
21 150 ft / 46 m 7,003 ft / 2,135 m 221.04° 210.58° Asphalt 0 ft / 0 m 0 ft / 0 m

Approach Navaids

Runway Type Ident Frequency Range Bearing (true) Bearing (mag) Slope Elevation
21 Localiser IFLG 110.50 MHz 18 nm / 33 km 226.05° 215.59° - 7,011 ft / 2,137 m (AMSL)
21 Glidescope IFLG 110.50 MHz 10 nm / 19 km 221.04° 210.57° 3.00° 6,998 ft / 2,133 m (AMSL)

Popular Alternatives